Terminal Aerodrome Forecast
Issued by NWS Topeka, KS

Home | Current Version | Previous Version | Graphics & Text | Print | Product List | Glossary On
Versions: 1 2 3 4 5 6 7 8 9 10 11 12 13 14 15 16 17 18 19 20 21 22
000
FTUS43 KTOP 142325
TAFTOP
TAF
KTOP 142325Z 1500/1524 02005KT P6SM OVC040
     FM150400 05004KT 4SM -FZRA BR OVC025
     FM150700 08004KT 5SM BR OVC013
     FM151000 08005KT 3SM -FZDZ BR OVC008
      TEMPO 1513/1517 FZRA BR OVC012=

USA.gov is the U.S. government's official web portal to all federal, state and local government web resources and services.